sensor_id;sensor_type;location;lat;lon;timestamp;P1;durP1;ratioP1;P2;durP2;ratioP2
1024;SDS011;501;48.214;11.350;2023-02-28T00:00:32;3.90;;;3.27;;
1024;SDS011;501;48.214;11.350;2023-02-28T00:02:58;5.17;;;3.20;;
1024;SDS011;501;48.214;11.350;2023-02-28T00:05:25;5.77;;;3.43;;
1024;SDS011;501;48.214;11.350;2023-02-28T00:07:51;2.47;;;2.23;;
1024;SDS011;501;48.214;11.350;2023-02-28T00:10:21;3.43;;;2.90;;
1024;SDS011;501;48.214;11.350;2023-02-28T00:12:51;5.60;;;3.43;;
1024;SDS011;501;48.214;11.350;2023-02-28T00:15:18;4.13;;;3.73;;
1024;SDS011;501;48.214;11.350;2023-02-28T00:17:44;6.93;;;4.00;;
1024;SDS011;501;48.214;11.350;2023-02-28T00:20:11;5.47;;;3.97;;
1024;SDS011;501;48.214;11.350;2023-02-28T00:22:41;5.73;;;3.70;;
1024;SDS011;501;48.214;11.350;2023-02-28T00:25:10;5.47;;;3.97;;
1024;SDS011;501;48.214;11.350;2023-02-28T00:27:37;5.33;;;3.63;;
1024;SDS011;501;48.214;11.350;2023-02-28T00:30:05;4.93;;;3.40;;
1024;SDS011;501;48.214;11.350;2023-02-28T00:32:34;3.60;;;3.30;;
1024;SDS011;501;48.214;11.350;2023-02-28T00:35:00;6.63;;;3.33;;
1024;SDS011;501;48.214;11.350;2023-02-28T00:37:26;6.33;;;3.07;;
1024;SDS011;501;48.214;11.350;2023-02-28T00:39:52;5.30;;;3.90;;
1024;SDS011;501;48.214;11.350;2023-02-28T00:42:18;3.63;;;3.33;;
1024;SDS011;501;48.214;11.350;2023-02-28T00:44:43;5.13;;;3.53;;
1024;SDS011;501;48.214;11.350;2023-02-28T00:47:09;8.60;;;3.97;;
1024;SDS011;501;48.214;11.350;2023-02-28T00:49:35;5.73;;;4.07;;
1024;SDS011;501;48.214;11.350;2023-02-28T00:52:01;4.83;;;3.40;;
1024;SDS011;501;48.214;11.350;2023-02-28T00:54:26;5.67;;;4.07;;
1024;SDS011;501;48.214;11.350;2023-02-28T00:56:52;5.17;;;3.57;;
1024;SDS011;501;48.214;11.350;2023-02-28T00:59:18;5.13;;;4.33;;
1024;SDS011;501;48.214;11.350;2023-02-28T01:01:44;6.13;;;3.87;;
1024;SDS011;501;48.214;11.350;2023-02-28T01:04:11;4.83;;;3.57;;
1024;SDS011;501;48.214;11.350;2023-02-28T01:06:37;5.27;;;3.70;;
1024;SDS011;501;48.214;11.350;2023-02-28T01:09:03;6.93;;;5.23;;
1024;SDS011;501;48.214;11.350;2023-02-28T01:11:31;5.60;;;3.60;;
1024;SDS011;501;48.214;11.350;2023-02-28T01:13:57;4.60;;;3.70;;
1024;SDS011;501;48.214;11.350;2023-02-28T01:16:23;7.70;;;4.00;;
1024;SDS011;501;48.214;11.350;2023-02-28T01:18:49;4.77;;;3.47;;
1024;SDS011;501;48.214;11.350;2023-02-28T01:21:15;5.93;;;3.87;;
1024;SDS011;501;48.214;11.350;2023-02-28T01:23:42;4.53;;;3.67;;
1024;SDS011;501;48.214;11.350;2023-02-28T01:26:16;4.67;;;3.73;;
1024;SDS011;501;48.214;11.350;2023-02-28T01:28:43;5.40;;;3.80;;
1024;SDS011;501;48.214;11.350;2023-02-28T01:31:09;4.90;;;3.77;;
1024;SDS011;501;48.214;11.350;2023-02-28T01:33:36;8.77;;;4.93;;
1024;SDS011;501;48.214;11.350;2023-02-28T01:36:06;5.10;;;3.53;;
1024;SDS011;501;48.214;11.350;2023-02-28T01:38:36;5.47;;;3.93;;
1024;SDS011;501;48.214;11.350;2023-02-28T01:41:02;5.53;;;3.93;;
1024;SDS011;501;48.214;11.350;2023-02-28T01:43:29;6.97;;;3.60;;
1024;SDS011;501;48.214;11.350;2023-02-28T01:45:57;6.50;;;4.80;;
1024;SDS011;501;48.214;11.350;2023-02-28T01:48:35;4.80;;;3.60;;
1024;SDS011;501;48.214;11.350;2023-02-28T01:51:05;5.60;;;3.53;;
1024;SDS011;501;48.214;11.350;2023-02-28T01:53:41;7.67;;;4.20;;
1024;SDS011;501;48.214;11.350;2023-02-28T01:56:17;6.00;;;4.20;;
1024;SDS011;501;48.214;11.350;2023-02-28T01:58:48;6.83;;;4.60;;
1024;SDS011;501;48.214;11.350;2023-02-28T02:01:15;7.63;;;3.40;;
1024;SDS011;501;48.214;11.350;2023-02-28T02:03:47;5.63;;;3.87;;
1024;SDS011;501;48.214;11.350;2023-02-28T02:06:20;4.70;;;4.23;;
1024;SDS011;501;48.214;11.350;2023-02-28T02:08:47;8.63;;;4.10;;
1024;SDS011;501;48.214;11.350;2023-02-28T02:11:12;4.23;;;2.97;;
1024;SDS011;501;48.214;11.350;2023-02-28T02:16:40;4.23;;;2.97;;
1024;SDS011;501;48.214;11.350;2023-02-28T02:22:05;5.30;;;3.97;;
1024;SDS011;501;48.214;11.350;2023-02-28T02:38:36;4.60;;;3.57;;
1024;SDS011;501;48.214;11.350;2023-02-28T02:41:38;5.97;;;4.50;;
1024;SDS011;501;48.214;11.350;2023-02-28T02:47:01;5.30;;;3.70;;
1024;SDS011;501;48.214;11.350;2023-02-28T02:49:35;4.97;;;4.40;;
1024;SDS011;501;48.214;11.350;2023-02-28T02:52:03;7.70;;;4.33;;
1024;SDS011;501;48.214;11.350;2023-02-28T02:54:33;5.97;;;3.60;;
1024;SDS011;501;48.214;11.350;2023-02-28T02:57:03;6.23;;;4.80;;
1024;SDS011;501;48.214;11.350;2023-02-28T02:59:35;7.40;;;4.13;;
1024;SDS011;501;48.214;11.350;2023-02-28T03:02:04;5.63;;;4.30;;
1024;SDS011;501;48.214;11.350;2023-02-28T03:04:33;5.77;;;3.93;;
1024;SDS011;501;48.214;11.350;2023-02-28T03:07:03;7.30;;;4.10;;
1024;SDS011;501;48.214;11.350;2023-02-28T03:09:28;6.47;;;5.00;;
1024;SDS011;501;48.214;11.350;2023-02-28T03:11:57;4.93;;;4.07;;
1024;SDS011;501;48.214;11.350;2023-02-28T03:30:56;7.10;;;5.17;;
1024;SDS011;501;48.214;11.350;2023-02-28T03:33:42;5.77;;;4.23;;
1024;SDS011;501;48.214;11.350;2023-02-28T03:36:20;6.33;;;4.20;;
1024;SDS011;501;48.214;11.350;2023-02-28T03:39:03;6.67;;;4.63;;
1024;SDS011;501;48.214;11.350;2023-02-28T03:41:33;6.03;;;4.57;;
1024;SDS011;501;48.214;11.350;2023-02-28T03:44:05;6.70;;;4.83;;
1024;SDS011;501;48.214;11.350;2023-02-28T03:46:40;6.30;;;4.80;;
1024;SDS011;501;48.214;11.350;2023-02-28T03:49:18;7.97;;;4.97;;
1024;SDS011;501;48.214;11.350;2023-02-28T03:51:49;8.20;;;5.30;;
1024;SDS011;501;48.214;11.350;2023-02-28T03:54:18;7.03;;;5.60;;
1024;SDS011;501;48.214;11.350;2023-02-28T03:56:57;8.67;;;5.20;;
1024;SDS011;501;48.214;11.350;2023-02-28T03:59:34;10.13;;;5.50;;
1024;SDS011;501;48.214;11.350;2023-02-28T04:02:03;7.83;;;5.80;;
1024;SDS011;501;48.214;11.350;2023-02-28T04:04:28;8.87;;;5.00;;
1024;SDS011;501;48.214;11.350;2023-02-28T04:07:00;6.03;;;5.00;;
1024;SDS011;501;48.214;11.350;2023-02-28T04:09:28;8.10;;;4.57;;
1024;SDS011;501;48.214;11.350;2023-02-28T04:11:54;8.17;;;4.83;;
1024;SDS011;501;48.214;11.350;2023-02-28T04:14:22;8.80;;;5.87;;
1024;SDS011;501;48.214;11.350;2023-02-28T04:16:48;7.13;;;4.70;;
1024;SDS011;501;48.214;11.350;2023-02-28T04:19:15;9.67;;;5.27;;
1024;SDS011;501;48.214;11.350;2023-02-28T04:21:42;8.10;;;5.10;;
1024;SDS011;501;48.214;11.350;2023-02-28T04:24:10;10.53;;;5.77;;
1024;SDS011;501;48.214;11.350;2023-02-28T04:26:42;9.23;;;5.87;;
1024;SDS011;501;48.214;11.350;2023-02-28T04:29:10;7.43;;;5.23;;
1024;SDS011;501;48.214;11.350;2023-02-28T04:31:37;6.63;;;5.17;;
1024;SDS011;501;48.214;11.350;2023-02-28T04:34:02;7.50;;;5.10;;
1024;SDS011;501;48.214;11.350;2023-02-28T04:36:28;11.83;;;6.10;;
1024;SDS011;501;48.214;11.350;2023-02-28T04:38:54;10.40;;;6.50;;
1024;SDS011;501;48.214;11.350;2023-02-28T04:41:20;12.07;;;6.87;;
1024;SDS011;501;48.214;11.350;2023-02-28T04:43:47;9.90;;;6.20;;
1024;SDS011;501;48.214;11.350;2023-02-28T04:46:13;8.00;;;5.80;;
1024;SDS011;501;48.214;11.350;2023-02-28T04:48:39;10.27;;;6.60;;
1024;SDS011;501;48.214;11.350;2023-02-28T04:51:08;8.10;;;6.40;;
1024;SDS011;501;48.214;11.350;2023-02-28T04:53:39;11.10;;;7.43;;
1024;SDS011;501;48.214;11.350;2023-02-28T04:56:06;10.67;;;6.73;;
1024;SDS011;501;48.214;11.350;2023-02-28T04:58:33;11.90;;;7.80;;
1024;SDS011;501;48.214;11.350;2023-02-28T05:01:06;10.00;;;6.03;;
1024;SDS011;501;48.214;11.350;2023-02-28T05:03:40;9.13;;;5.93;;
1024;SDS011;501;48.214;11.350;2023-02-28T05:06:10;11.00;;;6.30;;
1024;SDS011;501;48.214;11.350;2023-02-28T05:08:36;10.47;;;7.13;;
1024;SDS011;501;48.214;11.350;2023-02-28T05:11:02;9.03;;;5.70;;
1024;SDS011;501;48.214;11.350;2023-02-28T05:13:28;9.30;;;6.53;;
1024;SDS011;501;48.214;11.350;2023-02-28T05:15:54;9.00;;;6.50;;
1024;SDS011;501;48.214;11.350;2023-02-28T05:18:20;7.47;;;6.00;;
1024;SDS011;501;48.214;11.350;2023-02-28T05:20:46;11.70;;;6.70;;
1024;SDS011;501;48.214;11.350;2023-02-28T05:23:12;9.37;;;6.50;;
1024;SDS011;501;48.214;11.350;2023-02-28T05:25:39;9.97;;;6.77;;
1024;SDS011;501;48.214;11.350;2023-02-28T05:28:05;10.57;;;7.20;;
1024;SDS011;501;48.214;11.350;2023-02-28T05:30:31;12.30;;;7.40;;
1024;SDS011;501;48.214;11.350;2023-02-28T05:32:57;9.53;;;7.10;;
1024;SDS011;501;48.214;11.350;2023-02-28T05:35:24;12.37;;;7.07;;
1024;SDS011;501;48.214;11.350;2023-02-28T05:37:50;9.50;;;6.90;;
1024;SDS011;501;48.214;11.350;2023-02-28T05:40:17;10.43;;;6.93;;
1024;SDS011;501;48.214;11.350;2023-02-28T05:42:45;12.10;;;7.30;;
1024;SDS011;501;48.214;11.350;2023-02-28T05:45:11;14.63;;;8.13;;
1024;SDS011;501;48.214;11.350;2023-02-28T05:47:36;9.43;;;7.23;;
1024;SDS011;501;48.214;11.350;2023-02-28T05:50:03;14.40;;;9.07;;
1024;SDS011;501;48.214;11.350;2023-02-28T05:52:29;10.77;;;7.63;;
1024;SDS011;501;48.214;11.350;2023-02-28T05:54:55;14.00;;;8.03;;
1024;SDS011;501;48.214;11.350;2023-02-28T05:57:21;14.20;;;8.70;;
1024;SDS011;501;48.214;11.350;2023-02-28T05:59:47;12.63;;;8.40;;
1024;SDS011;501;48.214;11.350;2023-02-28T06:02:14;12.83;;;8.20;;
1024;SDS011;501;48.214;11.350;2023-02-28T06:04:41;11.83;;;8.33;;
1024;SDS011;501;48.214;11.350;2023-02-28T06:07:07;11.50;;;7.20;;
1024;SDS011;501;48.214;11.350;2023-02-28T06:09:33;10.57;;;8.57;;
1024;SDS011;501;48.214;11.350;2023-02-28T06:12:00;13.60;;;9.13;;
1024;SDS011;501;48.214;11.350;2023-02-28T06:14:28;14.30;;;9.27;;
1024;SDS011;501;48.214;11.350;2023-02-28T06:16:56;13.07;;;7.87;;
1024;SDS011;501;48.214;11.350;2023-02-28T06:19:22;13.10;;;8.03;;
1024;SDS011;501;48.214;11.350;2023-02-28T06:21:50;13.43;;;7.77;;
1024;SDS011;501;48.214;11.350;2023-02-28T06:24:20;10.50;;;7.13;;
1024;SDS011;501;48.214;11.350;2023-02-28T06:26:46;12.83;;;8.00;;
1024;SDS011;501;48.214;11.350;2023-02-28T06:29:12;12.67;;;8.00;;
1024;SDS011;501;48.214;11.350;2023-02-28T06:31:42;16.30;;;9.50;;
1024;SDS011;501;48.214;11.350;2023-02-28T06:34:09;13.37;;;8.70;;
1024;SDS011;501;48.214;11.350;2023-02-28T06:36:36;14.37;;;9.20;;
1024;SDS011;501;48.214;11.350;2023-02-28T06:39:03;14.37;;;9.63;;
1024;SDS011;501;48.214;11.350;2023-02-28T06:41:28;15.93;;;9.83;;
1024;SDS011;501;48.214;11.350;2023-02-28T06:43:54;15.37;;;8.80;;
1024;SDS011;501;48.214;11.350;2023-02-28T06:46:20;13.60;;;9.33;;
1024;SDS011;501;48.214;11.350;2023-02-28T06:48:46;12.77;;;9.20;;
1024;SDS011;501;48.214;11.350;2023-02-28T06:51:13;17.30;;;10.13;;
1024;SDS011;501;48.214;11.350;2023-02-28T06:53:45;14.83;;;10.23;;
1024;SDS011;501;48.214;11.350;2023-02-28T06:56:12;15.20;;;9.63;;
1024;SDS011;501;48.214;11.350;2023-02-28T06:58:39;14.60;;;9.20;;
1024;SDS011;501;48.214;11.350;2023-02-28T07:01:05;13.93;;;8.77;;
1024;SDS011;501;48.214;11.350;2023-02-28T07:03:31;13.63;;;8.60;;
1024;SDS011;501;48.214;11.350;2023-02-28T07:05:57;14.50;;;9.47;;
1024;SDS011;501;48.214;11.350;2023-02-28T07:08:23;14.80;;;9.70;;
1024;SDS011;501;48.214;11.350;2023-02-28T07:10:53;15.10;;;10.23;;
1024;SDS011;501;48.214;11.350;2023-02-28T07:13:20;14.80;;;10.03;;
1024;SDS011;501;48.214;11.350;2023-02-28T07:16:09;13.87;;;10.50;;
1024;SDS011;501;48.214;11.350;2023-02-28T07:18:34;14.80;;;9.70;;
1024;SDS011;501;48.214;11.350;2023-02-28T07:21:03;11.60;;;8.40;;
1024;SDS011;501;48.214;11.350;2023-02-28T07:23:30;13.73;;;9.40;;
1024;SDS011;501;48.214;11.350;2023-02-28T07:25:56;18.63;;;11.13;;
1024;SDS011;501;48.214;11.350;2023-02-28T07:28:21;16.93;;;9.50;;
1024;SDS011;501;48.214;11.350;2023-02-28T07:30:47;16.77;;;10.60;;
1024;SDS011;501;48.214;11.350;2023-02-28T07:33:13;15.63;;;11.07;;
1024;SDS011;501;48.214;11.350;2023-02-28T07:35:38;16.23;;;10.40;;
1024;SDS011;501;48.214;11.350;2023-02-28T07:38:04;15.53;;;10.40;;
1024;SDS011;501;48.214;11.350;2023-02-28T07:40:32;20.57;;;11.53;;
1024;SDS011;501;48.214;11.350;2023-02-28T07:42:59;15.13;;;10.60;;
1024;SDS011;501;48.214;11.350;2023-02-28T07:45:25;17.13;;;10.03;;
1024;SDS011;501;48.214;11.350;2023-02-28T07:47:53;15.77;;;9.47;;
1024;SDS011;501;48.214;11.350;2023-02-28T07:50:19;20.17;;;12.07;;
1024;SDS011;501;48.214;11.350;2023-02-28T07:52:45;19.67;;;10.10;;
1024;SDS011;501;48.214;11.350;2023-02-28T07:55:10;20.33;;;11.13;;
1024;SDS011;501;48.214;11.350;2023-02-28T07:57:36;16.90;;;11.30;;
1024;SDS011;501;48.214;11.350;2023-02-28T08:00:03;15.83;;;11.30;;
1024;SDS011;501;48.214;11.350;2023-02-28T08:02:29;19.17;;;11.73;;
1024;SDS011;501;48.214;11.350;2023-02-28T08:04:55;19.40;;;12.10;;
1024;SDS011;501;48.214;11.350;2023-02-28T08:07:22;18.30;;;10.97;;
1024;SDS011;501;48.214;11.350;2023-02-28T08:09:48;16.70;;;10.93;;
1024;SDS011;501;48.214;11.350;2023-02-28T08:12:13;16.00;;;10.50;;
1024;SDS011;501;48.214;11.350;2023-02-28T08:14:39;17.40;;;12.77;;
1024;SDS011;501;48.214;11.350;2023-02-28T08:17:05;20.87;;;12.50;;
1024;SDS011;501;48.214;11.350;2023-02-28T08:19:31;16.30;;;10.47;;
1024;SDS011;501;48.214;11.350;2023-02-28T08:21:57;18.03;;;11.50;;
1024;SDS011;501;48.214;11.350;2023-02-28T08:24:23;17.80;;;12.33;;
1024;SDS011;501;48.214;11.350;2023-02-28T08:26:49;19.93;;;12.93;;
1024;SDS011;501;48.214;11.350;2023-02-28T08:29:15;17.07;;;11.27;;
1024;SDS011;501;48.214;11.350;2023-02-28T08:31:40;16.10;;;10.20;;
1024;SDS011;501;48.214;11.350;2023-02-28T08:34:10;21.87;;;12.97;;
1024;SDS011;501;48.214;11.350;2023-02-28T08:36:38;22.73;;;12.47;;
1024;SDS011;501;48.214;11.350;2023-02-28T08:39:05;17.37;;;11.50;;
1024;SDS011;501;48.214;11.350;2023-02-28T08:41:31;15.60;;;11.93;;
1024;SDS011;501;48.214;11.350;2023-02-28T08:43:57;21.17;;;12.27;;
1024;SDS011;501;48.214;11.350;2023-02-28T08:46:23;16.60;;;12.03;;
1024;SDS011;501;48.214;11.350;2023-02-28T08:48:51;20.07;;;12.90;;
1024;SDS011;501;48.214;11.350;2023-02-28T08:51:19;19.60;;;13.47;;
1024;SDS011;501;48.214;11.350;2023-02-28T08:53:51;20.47;;;13.27;;
1024;SDS011;501;48.214;11.350;2023-02-28T08:56:21;17.87;;;11.53;;
1024;SDS011;501;48.214;11.350;2023-02-28T08:58:47;21.40;;;13.70;;
1024;SDS011;501;48.214;11.350;2023-02-28T09:01:14;22.60;;;13.53;;
1024;SDS011;501;48.214;11.350;2023-02-28T09:03:42;19.17;;;11.93;;
1024;SDS011;501;48.214;11.350;2023-02-28T09:06:09;16.87;;;12.03;;
1024;SDS011;501;48.214;11.350;2023-02-28T09:08:36;19.90;;;12.23;;
1024;SDS011;501;48.214;11.350;2023-02-28T09:11:02;16.90;;;12.07;;
1024;SDS011;501;48.214;11.350;2023-02-28T09:13:29;15.63;;;11.87;;
1024;SDS011;501;48.214;11.350;2023-02-28T09:15:57;16.80;;;12.20;;
1024;SDS011;501;48.214;11.350;2023-02-28T09:18:23;18.10;;;12.67;;
1024;SDS011;501;48.214;11.350;2023-02-28T09:20:49;19.80;;;12.03;;
1024;SDS011;501;48.214;11.350;2023-02-28T09:23:15;18.93;;;12.30;;
1024;SDS011;501;48.214;11.350;2023-02-28T09:25:47;14.57;;;10.60;;
1024;SDS011;501;48.214;11.350;2023-02-28T09:28:15;20.83;;;11.70;;
1024;SDS011;501;48.214;11.350;2023-02-28T09:30:43;17.43;;;12.20;;
1024;SDS011;501;48.214;11.350;2023-02-28T09:33:10;15.53;;;11.73;;
1024;SDS011;501;48.214;11.350;2023-02-28T09:35:35;18.40;;;10.90;;
1024;SDS011;501;48.214;11.350;2023-02-28T09:38:02;18.90;;;12.17;;
1024;SDS011;501;48.214;11.350;2023-02-28T09:40:28;21.90;;;11.93;;
1024;SDS011;501;48.214;11.350;2023-02-28T09:42:54;23.00;;;10.80;;
1024;SDS011;501;48.214;11.350;2023-02-28T09:45:32;18.50;;;12.27;;
1024;SDS011;501;48.214;11.350;2023-02-28T09:48:14;17.40;;;11.50;;
1024;SDS011;501;48.214;11.350;2023-02-28T09:50:51;17.23;;;12.20;;
1024;SDS011;501;48.214;11.350;2023-02-28T09:56:01;19.17;;;11.87;;
1024;SDS011;501;48.214;11.350;2023-02-28T10:03:50;16.30;;;12.17;;
1024;SDS011;501;48.214;11.350;2023-02-28T10:06:22;16.70;;;10.97;;
1024;SDS011;501;48.214;11.350;2023-02-28T10:09:00;16.40;;;12.00;;
1024;SDS011;501;48.214;11.350;2023-02-28T10:11:28;18.10;;;11.43;;
1024;SDS011;501;48.214;11.350;2023-02-28T10:14:01;15.13;;;11.70;;
1024;SDS011;501;48.214;11.350;2023-02-28T10:16:35;17.87;;;12.37;;
1024;SDS011;501;48.214;11.350;2023-02-28T10:19:20;20.70;;;13.27;;
1024;SDS011;501;48.214;11.350;2023-02-28T10:21:55;19.83;;;12.10;;
1024;SDS011;501;48.214;11.350;2023-02-28T10:24:32;17.27;;;10.97;;
1024;SDS011;501;48.214;11.350;2023-02-28T10:27:22;14.50;;;10.70;;
1024;SDS011;501;48.214;11.350;2023-02-28T10:29:51;16.73;;;12.60;;
1024;SDS011;501;48.214;11.350;2023-02-28T10:32:19;49.00;;;13.30;;
1024;SDS011;501;48.214;11.350;2023-02-28T10:34:51;12.37;;;9.73;;
1024;SDS011;501;48.214;11.350;2023-02-28T10:37:21;18.77;;;12.50;;
1024;SDS011;501;48.214;11.350;2023-02-28T10:39:47;18.20;;;12.03;;
1024;SDS011;501;48.214;11.350;2023-02-28T10:42:23;19.97;;;13.03;;
1024;SDS011;501;48.214;11.350;2023-02-28T10:47:50;15.20;;;10.80;;
1024;SDS011;501;48.214;11.350;2023-02-28T10:50:29;18.00;;;12.23;;
1024;SDS011;501;48.214;11.350;2023-02-28T10:53:00;17.90;;;12.90;;
1024;SDS011;501;48.214;11.350;2023-02-28T10:56:03;17.10;;;11.20;;
1024;SDS011;501;48.214;11.350;2023-02-28T11:01:20;19.73;;;11.10;;
1024;SDS011;501;48.214;11.350;2023-02-28T11:03:59;14.10;;;10.20;;
1024;SDS011;501;48.214;11.350;2023-02-28T11:06:31;20.10;;;11.10;;
1024;SDS011;501;48.214;11.350;2023-02-28T11:11:42;15.87;;;10.50;;
1024;SDS011;501;48.214;11.350;2023-02-28T11:14:32;17.63;;;11.80;;
1024;SDS011;501;48.214;11.350;2023-02-28T11:17:00;17.30;;;11.40;;
1024;SDS011;501;48.214;11.350;2023-02-28T11:19:40;17.17;;;10.70;;
1024;SDS011;501;48.214;11.350;2023-02-28T11:22:11;14.67;;;10.83;;
1024;SDS011;501;48.214;11.350;2023-02-28T11:24:47;17.57;;;11.70;;
1024;SDS011;501;48.214;11.350;2023-02-28T11:29:59;12.77;;;10.03;;
1024;SDS011;501;48.214;11.350;2023-02-28T11:32:26;15.43;;;10.40;;
1024;SDS011;501;48.214;11.350;2023-02-28T11:35:01;14.40;;;11.27;;
1024;SDS011;501;48.214;11.350;2023-02-28T11:37:27;17.00;;;11.63;;
1024;SDS011;501;48.214;11.350;2023-02-28T11:39:53;15.83;;;11.97;;
1024;SDS011;501;48.214;11.350;2023-02-28T11:50:39;20.60;;;12.90;;
1024;SDS011;501;48.214;11.350;2023-02-28T11:56:12;16.97;;;10.77;;
1024;SDS011;501;48.214;11.350;2023-02-28T11:59:09;15.97;;;11.83;;
1024;SDS011;501;48.214;11.350;2023-02-28T12:02:01;13.43;;;10.53;;
1024;SDS011;501;48.214;11.350;2023-02-28T12:09:58;14.30;;;11.03;;
1024;SDS011;501;48.214;11.350;2023-02-28T12:15:44;16.17;;;11.67;;
1024;SDS011;501;48.214;11.350;2023-02-28T12:25:19;14.40;;;11.00;;
1024;SDS011;501;48.214;11.350;2023-02-28T12:27:28;15.10;;;10.90;;
1024;SDS011;501;48.214;11.350;2023-02-28T12:29:59;13.43;;;9.70;;
1024;SDS011;501;48.214;11.350;2023-02-28T12:32:47;12.70;;;10.30;;
1024;SDS011;501;48.214;11.350;2023-02-28T12:35:19;16.60;;;10.60;;
1024;SDS011;501;48.214;11.350;2023-02-28T12:37:51;15.87;;;10.90;;
1024;SDS011;501;48.214;11.350;2023-02-28T12:40:26;17.00;;;10.80;;
1024;SDS011;501;48.214;11.350;2023-02-28T12:43:07;13.60;;;9.90;;
1024;SDS011;501;48.214;11.350;2023-02-28T12:45:42;13.10;;;11.00;;
1024;SDS011;501;48.214;11.350;2023-02-28T12:48:15;13.43;;;10.10;;
1024;SDS011;501;48.214;11.350;2023-02-28T12:50:47;16.07;;;9.83;;
1024;SDS011;501;48.214;11.350;2023-02-28T12:53:17;14.57;;;10.57;;
1024;SDS011;501;48.214;11.350;2023-02-28T12:56:08;16.67;;;9.63;;
1024;SDS011;501;48.214;11.350;2023-02-28T12:58:58;13.67;;;9.80;;
1024;SDS011;501;48.214;11.350;2023-02-28T13:10:08;11.67;;;9.00;;
1024;SDS011;501;48.214;11.350;2023-02-28T13:12:35;12.77;;;9.77;;
1024;SDS011;501;48.214;11.350;2023-02-28T13:15:08;15.73;;;10.93;;
1024;SDS011;501;48.214;11.350;2023-02-28T13:17:53;10.83;;;9.30;;
1024;SDS011;501;48.214;11.350;2023-02-28T13:20:27;14.80;;;9.07;;
1024;SDS011;501;48.214;11.350;2023-02-28T13:22:58;11.47;;;8.90;;
1024;SDS011;501;48.214;11.350;2023-02-28T13:28:13;14.20;;;9.50;;
1024;SDS011;501;48.214;11.350;2023-02-28T13:31:14;13.63;;;9.50;;
1024;SDS011;501;48.214;11.350;2023-02-28T13:38:43;14.93;;;9.30;;
1024;SDS011;501;48.214;11.350;2023-02-28T13:43:59;11.27;;;8.73;;
1024;SDS011;501;48.214;11.350;2023-02-28T13:46:28;14.77;;;9.70;;
1024;SDS011;501;48.214;11.350;2023-02-28T13:48:54;12.77;;;8.73;;
1024;SDS011;501;48.214;11.350;2023-02-28T13:54:28;10.97;;;8.57;;
1024;SDS011;501;48.214;11.350;2023-02-28T14:05:38;10.20;;;8.30;;
1024;SDS011;501;48.214;11.350;2023-02-28T14:08:08;10.80;;;8.73;;
1024;SDS011;501;48.214;11.350;2023-02-28T14:10:49;12.10;;;9.33;;
1024;SDS011;501;48.214;11.350;2023-02-28T14:13:43;11.57;;;8.97;;
1024;SDS011;501;48.214;11.350;2023-02-28T14:16:16;9.57;;;8.57;;
1024;SDS011;501;48.214;11.350;2023-02-28T14:19:00;11.50;;;8.70;;
1024;SDS011;501;48.214;11.350;2023-02-28T14:21:31;9.20;;;8.20;;
1024;SDS011;501;48.214;11.350;2023-02-28T14:26:44;11.97;;;9.57;;
1024;SDS011;501;48.214;11.350;2023-02-28T14:32:35;11.37;;;9.47;;
1024;SDS011;501;48.214;11.350;2023-02-28T14:37:50;13.90;;;10.10;;
1024;SDS011;501;48.214;11.350;2023-02-28T14:40:17;11.23;;;9.00;;
1024;SDS011;501;48.214;11.350;2023-02-28T14:42:49;11.30;;;9.27;;
1024;SDS011;501;48.214;11.350;2023-02-28T14:45:24;10.63;;;8.93;;
1024;SDS011;501;48.214;11.350;2023-02-28T14:47:55;9.83;;;8.83;;
1024;SDS011;501;48.214;11.350;2023-02-28T14:50:27;12.80;;;8.90;;
1024;SDS011;501;48.214;11.350;2023-02-28T14:52:56;9.70;;;8.73;;
1024;SDS011;501;48.214;11.350;2023-02-28T14:55:25;10.10;;;8.40;;
1024;SDS011;501;48.214;11.350;2023-02-28T14:57:55;10.20;;;9.10;;
1024;SDS011;501;48.214;11.350;2023-02-28T15:00:32;9.30;;;8.00;;
1024;SDS011;501;48.214;11.350;2023-02-28T15:03:00;10.10;;;8.60;;
1024;SDS011;501;48.214;11.350;2023-02-28T15:05:42;9.23;;;8.20;;
1024;SDS011;501;48.214;11.350;2023-02-28T15:08:16;10.70;;;8.57;;
1024;SDS011;501;48.214;11.350;2023-02-28T15:11:24;10.33;;;9.03;;
1024;SDS011;501;48.214;11.350;2023-02-28T15:16:20;12.20;;;8.90;;
1024;SDS011;501;48.214;11.350;2023-02-28T15:19:20;10.17;;;7.27;;
1024;SDS011;501;48.214;11.350;2023-02-28T15:21:51;13.83;;;9.93;;
1024;SDS011;501;48.214;11.350;2023-02-28T15:26:57;11.83;;;9.77;;
1024;SDS011;501;48.214;11.350;2023-02-28T15:29:25;10.50;;;8.30;;
1024;SDS011;501;48.214;11.350;2023-02-28T15:34:43;12.63;;;9.03;;
1024;SDS011;501;48.214;11.350;2023-02-28T15:39:56;11.93;;;8.57;;
1024;SDS011;501;48.214;11.350;2023-02-28T15:42:27;11.70;;;8.73;;
1024;SDS011;501;48.214;11.350;2023-02-28T15:44:53;10.33;;;8.80;;
1024;SDS011;501;48.214;11.350;2023-02-28T15:47:20;10.20;;;8.30;;
1024;SDS011;501;48.214;11.350;2023-02-28T15:49:49;11.80;;;8.67;;
1024;SDS011;501;48.214;11.350;2023-02-28T15:52:22;12.17;;;8.70;;
1024;SDS011;501;48.214;11.350;2023-02-28T15:54:53;14.13;;;8.60;;
1024;SDS011;501;48.214;11.350;2023-02-28T15:57:20;12.87;;;8.53;;
1024;SDS011;501;48.214;11.350;2023-02-28T15:59:59;15.73;;;9.80;;
1024;SDS011;501;48.214;11.350;2023-02-28T16:07:24;13.80;;;9.87;;
1024;SDS011;501;48.214;11.350;2023-02-28T16:09:51;12.63;;;8.97;;
1024;SDS011;501;48.214;11.350;2023-02-28T16:12:16;12.27;;;9.33;;
1024;SDS011;501;48.214;11.350;2023-02-28T16:14:43;13.40;;;9.40;;
1024;SDS011;501;48.214;11.350;2023-02-28T16:17:16;14.17;;;9.80;;
1024;SDS011;501;48.214;11.350;2023-02-28T16:19:48;12.00;;;9.37;;
1024;SDS011;501;48.214;11.350;2023-02-28T16:22:13;13.80;;;10.00;;
1024;SDS011;501;48.214;11.350;2023-02-28T16:24:39;15.90;;;10.00;;
1024;SDS011;501;48.214;11.350;2023-02-28T16:27:05;14.60;;;9.90;;
1024;SDS011;501;48.214;11.350;2023-02-28T16:29:32;11.97;;;8.93;;
1024;SDS011;501;48.214;11.350;2023-02-28T16:32:01;13.87;;;9.90;;
1024;SDS011;501;48.214;11.350;2023-02-28T16:34:30;14.97;;;10.47;;
1024;SDS011;501;48.214;11.350;2023-02-28T16:36:56;17.33;;;10.43;;
1024;SDS011;501;48.214;11.350;2023-02-28T16:39:21;12.27;;;9.77;;
1024;SDS011;501;48.214;11.350;2023-02-28T16:41:48;14.17;;;10.50;;
1024;SDS011;501;48.214;11.350;2023-02-28T16:44:27;13.77;;;9.80;;
1024;SDS011;501;48.214;11.350;2023-02-28T16:47:01;12.10;;;9.03;;
1024;SDS011;501;48.214;11.350;2023-02-28T16:49:28;12.07;;;8.87;;
1024;SDS011;501;48.214;11.350;2023-02-28T16:51:54;15.67;;;9.50;;
1024;SDS011;501;48.214;11.350;2023-02-28T16:54:20;19.13;;;11.60;;
1024;SDS011;501;48.214;11.350;2023-02-28T16:56:46;16.27;;;10.03;;
1024;SDS011;501;48.214;11.350;2023-02-28T16:59:13;15.83;;;10.70;;
1024;SDS011;501;48.214;11.350;2023-02-28T17:01:46;12.83;;;9.80;;
1024;SDS011;501;48.214;11.350;2023-02-28T17:04:12;16.87;;;10.83;;
1024;SDS011;501;48.214;11.350;2023-02-28T17:06:39;13.03;;;10.40;;
1024;SDS011;501;48.214;11.350;2023-02-28T17:09:05;15.10;;;10.27;;
1024;SDS011;501;48.214;11.350;2023-02-28T17:11:33;14.90;;;10.43;;
1024;SDS011;501;48.214;11.350;2023-02-28T17:13:59;12.23;;;8.83;;
1024;SDS011;501;48.214;11.350;2023-02-28T17:16:32;13.80;;;10.70;;
1024;SDS011;501;48.214;11.350;2023-02-28T17:19:01;13.23;;;10.37;;
1024;SDS011;501;48.214;11.350;2023-02-28T17:21:29;15.23;;;10.80;;
1024;SDS011;501;48.214;11.350;2023-02-28T17:23:56;16.27;;;9.87;;
1024;SDS011;501;48.214;11.350;2023-02-28T17:26:22;12.67;;;9.10;;
1024;SDS011;501;48.214;11.350;2023-02-28T17:28:53;13.60;;;10.00;;
1024;SDS011;501;48.214;11.350;2023-02-28T17:31:20;16.37;;;10.57;;
1024;SDS011;501;48.214;11.350;2023-02-28T17:33:47;14.80;;;9.87;;
1024;SDS011;501;48.214;11.350;2023-02-28T17:36:13;12.90;;;10.13;;